createdAt,value
2022-08-09T00:00:00.459Z,100966.41
2022-08-09T00:02:29.713Z,100964.09
2022-08-09T00:05:03.377Z,100965.81
2022-08-09T00:07:46.145Z,100960.88
2022-08-09T00:10:18.218Z,100961.47
2022-08-09T00:12:52.477Z,100960.63
2022-08-09T00:15:26.810Z,100958.94
2022-08-09T00:18:12.031Z,100960.75
2022-08-09T00:20:49.785Z,100960.50
2022-08-09T00:23:56.193Z,100955.22
2022-08-09T00:26:08.182Z,100954.00
2022-08-09T00:28:40.947Z,100953.88
2022-08-09T00:31:56.860Z,100953.28
2022-08-09T00:33:58.336Z,100955.94
2022-08-09T00:36:30.693Z,100948.81
2022-08-09T00:38:59.297Z,100943.31
2022-08-09T00:44:14.578Z,100948.22
2022-08-09T00:44:26.761Z,100943.78
2022-08-09T00:47:04.989Z,100944.72
2022-08-09T00:49:34.710Z,100948.00
2022-08-09T00:52:17.338Z,100943.66
2022-08-09T00:54:46.097Z,100944.72
2022-08-09T00:57:14.227Z,100947.81
2022-08-09T01:00:21.611Z,100935.81
2022-08-09T01:02:54.899Z,100945.31
2022-08-09T01:05:50.793Z,100947.91
2022-08-09T01:08:27.033Z,100946.41
2022-08-09T01:11:08.860Z,100949.94
2022-08-09T01:13:59.274Z,100952.03
2022-08-09T01:16:35.089Z,100950.44
2022-08-09T01:19:17.181Z,100948.75
2022-08-09T01:22:16.682Z,100955.06
2022-08-09T01:24:56.815Z,100954.22
2022-08-09T01:27:29.164Z,100957.06
2022-08-09T01:30:01.430Z,100960.50
2022-08-09T01:32:36.008Z,100952.66
2022-08-09T01:35:28.418Z,100961.50
2022-08-09T01:38:09.610Z,100958.13
2022-08-09T01:40:44.003Z,100960.31
2022-08-09T01:43:15.328Z,100955.53
2022-08-09T01:45:46.343Z,100955.41
2022-08-09T01:48:17.330Z,100959.28
2022-08-09T01:50:55.125Z,100959.31
2022-08-09T01:53:23.955Z,100955.72
2022-08-09T01:55:59.074Z,100951.34
2022-08-09T01:58:30.425Z,100951.81
2022-08-09T02:01:01.483Z,100952.47
2022-08-09T02:03:32.417Z,100959.13
2022-08-09T02:06:03.738Z,100966.31
2022-08-09T02:08:57.407Z,100972.25
2022-08-09T02:11:42.608Z,100977.69
2022-08-09T02:14:25.267Z,100983.00
2022-08-09T02:16:59.683Z,100978.25
2022-08-09T02:19:44.655Z,100988.78
2022-08-09T02:22:31.521Z,100993.19
2022-08-09T02:25:06.831Z,100983.03
2022-08-09T02:27:58.120Z,100993.34
2022-08-09T02:30:33.176Z,100999.34
2022-08-09T02:33:03.040Z,100999.16
2022-08-09T02:36:03.431Z,100998.91
2022-08-09T02:38:30.127Z,100997.91
2022-08-09T02:41:07.549Z,101005.31
2022-08-09T02:43:47.784Z,101000.25
2022-08-09T02:46:27.844Z,101004.69
2022-08-09T02:49:00.129Z,100997.00
2022-08-09T02:51:36.954Z,100999.31
2022-08-09T02:54:10.699Z,100998.69
2022-08-09T02:56:42.734Z,100995.22
2022-08-09T02:59:26.400Z,100999.75
2022-08-09T03:02:09.722Z,100994.91
2022-08-09T03:04:41.795Z,100993.66
2022-08-09T03:07:14.203Z,100999.97
2022-08-09T03:09:56.362Z,100985.19
2022-08-09T03:12:27.291Z,100994.38
2022-08-09T03:14:56.587Z,100985.91
2022-08-09T03:17:27.574Z,100985.69
2022-08-09T03:20:03.135Z,100980.16
2022-08-09T03:22:42.058Z,100984.75
2022-08-09T03:25:26.955Z,100985.59
2022-08-09T03:28:02.866Z,100981.47
2022-08-09T03:30:33.926Z,100984.88
2022-08-09T03:33:13.122Z,100983.91
2022-08-09T03:36:13.619Z,100983.91
2022-08-09T03:38:41.982Z,100993.81
2022-08-09T03:41:14.673Z,100993.75
2022-08-09T03:44:03.454Z,100991.72
2022-08-09T03:46:32.465Z,100997.75
2022-08-09T03:49:07.908Z,101003.53
2022-08-09T03:51:55.541Z,101002.91
2022-08-09T03:54:31.730Z,101001.88
2022-08-09T03:57:04.109Z,101000.06
2022-08-09T03:59:43.014Z,101011.38
2022-08-09T04:02:27.289Z,101009.00
2022-08-09T04:05:00.522Z,101010.25
2022-08-09T04:07:47.156Z,101019.16
2022-08-09T04:10:20.996Z,101021.69
2022-08-09T04:13:01.091Z,101023.66
2022-08-09T04:16:17.733Z,101024.09
2022-08-09T04:18:21.384Z,101027.16
2022-08-09T04:20:51.850Z,101023.25
2022-08-09T04:23:24.543Z,101025.66
2022-08-09T04:25:54.532Z,101026.94
2022-08-09T04:28:32.943Z,101029.94
2022-08-09T04:31:07.685Z,101027.56
2022-08-09T04:33:51.666Z,101036.34
2022-08-09T04:36:24.634Z,101035.28
2022-08-09T04:38:52.800Z,101041.50
2022-08-09T04:41:23.796Z,101040.75
2022-08-09T04:44:05.599Z,101049.06
2022-08-09T04:46:56.656Z,101041.19
2022-08-09T04:49:40.268Z,101055.63
2022-08-09T04:52:18.510Z,101053.06
2022-08-09T04:54:53.551Z,101056.59
2022-08-09T04:57:24.542Z,101065.56
2022-08-09T04:59:55.073Z,101058.63
2022-08-09T05:02:24.147Z,101056.47
2022-08-09T05:04:56.263Z,101059.03
2022-08-09T05:07:27.735Z,101066.38
2022-08-09T05:09:57.778Z,101073.94
2022-08-09T05:12:30.911Z,101080.75
2022-08-09T05:14:59.250Z,101078.66
2022-08-09T05:18:39.621Z,101084.16
2022-08-09T05:20:15.312Z,101080.63
2022-08-09T05:23:53.684Z,101081.00
2022-08-09T05:25:32.798Z,101077.78
2022-08-09T05:28:01.217Z,101077.16
2022-08-09T05:30:31.329Z,101075.13
2022-08-09T05:33:00.681Z,101079.56
2022-08-09T05:35:30.385Z,101089.50
2022-08-09T05:38:08.426Z,101084.53
2022-08-09T05:40:36.690Z,101081.56
2022-08-09T05:43:05.315Z,101084.75
2022-08-09T05:45:53.066Z,101086.25
2022-08-09T05:48:21.171Z,101086.56
2022-08-09T05:51:29.960Z,101090.56
2022-08-09T05:53:56.705Z,101096.06
2022-08-09T05:56:27.147Z,101097.03
2022-08-09T05:58:58.471Z,101099.84
2022-08-09T06:01:34.195Z,101105.03
2022-08-09T06:04:12.324Z,101102.69
2022-08-09T06:06:45.206Z,101105.34
2022-08-09T06:09:40.471Z,101111.38
2022-08-09T06:12:08.964Z,101107.44
2022-08-09T06:14:37.688Z,101113.69
2022-08-09T06:17:09.410Z,101118.47
2022-08-09T06:19:39.143Z,101116.78
2022-08-09T06:22:15.438Z,101116.91
2022-08-09T06:24:45.517Z,101120.44
2022-08-09T06:27:16.886Z,101122.03
2022-08-09T06:29:48.264Z,101130.56
2022-08-09T06:32:59.388Z,101130.97
2022-08-09T06:35:20.918Z,101122.94
2022-08-09T06:38:06.002Z,101129.00
2022-08-09T06:40:36.683Z,101125.75
2022-08-09T06:43:07.754Z,101132.28
2022-08-09T06:46:07.379Z,101128.03
2022-08-09T06:48:30.859Z,101129.94
2022-08-09T06:51:00.885Z,101131.31
2022-08-09T06:53:33.203Z,101138.56
2022-08-09T06:56:09.653Z,101144.91
2022-08-09T07:00:47.244Z,101149.00
2022-08-09T07:01:53.789Z,101143.00
2022-08-09T07:04:20.030Z,101154.81
2022-08-09T07:06:53.086Z,101148.41
2022-08-09T07:09:55.041Z,101145.06
2022-08-09T07:12:13.788Z,101146.97
2022-08-09T07:14:51.489Z,101140.22
2022-08-09T07:17:23.655Z,101149.47
2022-08-09T07:19:55.606Z,101150.22
2022-08-09T07:22:34.438Z,101153.59
2022-08-09T07:25:05.513Z,101143.72
2022-08-09T07:27:42.978Z,101151.91
2022-08-09T07:30:24.509Z,101151.66
2022-08-09T07:32:55.043Z,101147.22
2022-08-09T07:35:25.711Z,101148.53
2022-08-09T07:37:54.097Z,101149.66
2022-08-09T07:40:37.330Z,101151.69
2022-08-09T07:43:17.721Z,101155.91
2022-08-09T07:45:46.312Z,101155.00
2022-08-09T07:48:25.640Z,101156.81
2022-08-09T07:51:09.158Z,101154.00
2022-08-09T07:54:05.179Z,101154.13
2022-08-09T07:56:37.127Z,101157.00
2022-08-09T07:59:15.897Z,101154.59
2022-08-09T08:01:53.788Z,101154.41
2022-08-09T08:04:31.292Z,101154.78
2022-08-09T08:07:14.790Z,101145.66
2022-08-09T08:10:04.793Z,101158.09
2022-08-09T08:12:43.131Z,101146.22
2022-08-09T08:15:17.296Z,101148.34
2022-08-09T08:17:53.639Z,101152.19
2022-08-09T08:20:29.548Z,101144.22
2022-08-09T08:23:15.769Z,101156.19
2022-08-09T08:25:49.960Z,101157.16
2022-08-09T08:28:32.410Z,101156.66
2022-08-09T08:31:14.368Z,101141.94
2022-08-09T08:33:52.630Z,101154.56
2022-08-09T08:36:29.657Z,101146.75
2022-08-09T08:38:59.925Z,101140.94
2022-08-09T08:41:50.291Z,101138.50
2022-08-09T08:44:26.916Z,101143.53
2022-08-09T08:47:04.680Z,101143.59
2022-08-09T08:49:46.613Z,101144.34
2022-08-09T08:52:52.792Z,101143.34
2022-08-09T08:55:06.611Z,101147.47
2022-08-09T08:57:35.921Z,101151.41
2022-08-09T09:00:16.905Z,101150.28
2022-08-09T09:03:08.790Z,101152.28
2022-08-09T09:05:58.645Z,101144.25
2022-08-09T09:08:40.358Z,101144.25
2022-08-09T09:11:17.368Z,101144.41
2022-08-09T09:13:56.972Z,101146.13
2022-08-09T09:16:31.241Z,101140.75
2022-08-09T09:19:37.093Z,101143.88
2022-08-09T09:22:04.333Z,101142.94
2022-08-09T09:24:37.987Z,101138.53
2022-08-09T09:27:07.699Z,101140.31
2022-08-09T09:30:08.467Z,101136.38
2022-08-09T09:32:35.071Z,101135.28
2022-08-09T09:35:10.014Z,101134.31
2022-08-09T09:37:40.173Z,101134.44
2022-08-09T09:40:10.163Z,101122.25
2022-08-09T09:42:43.022Z,101130.16
2022-08-09T09:45:26.414Z,101122.31
2022-08-09T09:47:58.625Z,101122.09
2022-08-09T09:50:50.750Z,101120.84
2022-08-09T09:53:21.466Z,101116.63
2022-08-09T09:55:57.684Z,101119.63
2022-08-09T09:58:49.133Z,101111.25
2022-08-09T10:01:37.566Z,101110.53
2022-08-09T10:04:16.329Z,101098.72
2022-08-09T10:07:03.612Z,101095.53
2022-08-09T10:09:48.954Z,101091.34
2022-08-09T10:12:31.342Z,101091.97
2022-08-09T10:15:17.183Z,101097.16
2022-08-09T10:17:56.374Z,101093.06
2022-08-09T10:20:35.941Z,101092.25
2022-08-09T10:23:22.662Z,101086.75
2022-08-09T10:26:07.185Z,101079.34
2022-08-09T10:28:40.859Z,101075.75
2022-08-09T10:34:09.952Z,101061.25
2022-08-09T10:36:50.152Z,101068.34
2022-08-09T10:39:20.707Z,101057.38
2022-08-09T10:41:49.596Z,101062.53
2022-08-09T10:44:21.660Z,101053.41
2022-08-09T10:48:16.983Z,101046.09
2022-08-09T10:50:29.748Z,101042.34
2022-08-09T10:53:15.374Z,101039.78
2022-08-09T10:55:55.098Z,101049.66
2022-08-09T10:58:37.357Z,101050.31
2022-08-09T11:03:11.600Z,101056.59
2022-08-09T11:04:28.296Z,101040.41
2022-08-09T11:07:56.908Z,101053.28
2022-08-09T11:10:18.518Z,101055.78
2022-08-09T11:13:49.358Z,101052.72
2022-08-09T11:16:38.418Z,101049.50
2022-08-09T11:19:10.997Z,101046.09
2022-08-09T11:22:10.311Z,101045.34
2022-08-09T11:25:08.113Z,101039.75
2022-08-09T11:28:03.077Z,101043.91
2022-08-09T11:30:35.902Z,101043.94
2022-08-09T11:33:09.336Z,101049.47
2022-08-09T11:35:50.159Z,101037.28
2022-08-09T11:38:22.362Z,101036.97
2022-08-09T11:40:57.510Z,101041.91
2022-08-09T11:43:43.580Z,101041.22
2022-08-09T11:46:11.728Z,101046.28
2022-08-09T11:48:52.733Z,101044.16
2022-08-09T11:52:56.432Z,101041.66
2022-08-09T11:54:27.686Z,101038.56
2022-08-09T11:58:00.631Z,101032.22
2022-08-09T12:00:27.233Z,101036.34
2022-08-09T12:02:57.797Z,101044.22
2022-08-09T12:05:39.886Z,101031.56
2022-08-09T12:08:19.865Z,101036.50
2022-08-09T12:10:53.859Z,101043.56
2022-08-09T12:14:10.868Z,101033.09
2022-08-09T12:16:30.547Z,101029.41
2022-08-09T12:19:11.523Z,101020.28
2022-08-09T12:21:48.385Z,101015.78
2022-08-09T12:24:22.380Z,101021.31
2022-08-09T12:29:11.081Z,101015.91
2022-08-09T12:30:01.500Z,100972.75
2022-08-09T12:32:33.311Z,101022.34
2022-08-09T12:35:04.670Z,101000.84
2022-08-09T12:37:44.247Z,101007.13
2022-08-09T12:40:20.529Z,101008.53
2022-08-09T12:42:50.120Z,101008.28
2022-08-09T12:45:34.357Z,101007.97
2022-08-09T12:48:07.744Z,101011.38
2022-08-09T12:50:37.325Z,101009.63
2022-08-09T12:53:09.573Z,101003.22
2022-08-09T12:56:11.975Z,101007.59
2022-08-09T12:58:42.736Z,100994.38
2022-08-09T13:01:22.057Z,100997.78
2022-08-09T13:03:59.372Z,100996.81
2022-08-09T13:06:34.772Z,100989.25
2022-08-09T13:09:10.925Z,100990.53
2022-08-09T13:11:42.811Z,100986.56
2022-08-09T13:14:42.138Z,100987.06
2022-08-09T13:17:08.412Z,100994.34
2022-08-09T13:20:09.012Z,100992.88
2022-08-09T13:22:37.087Z,100991.50
2022-08-09T13:25:17.830Z,100983.16
2022-08-09T13:27:55.641Z,100988.94
2022-08-09T13:30:50.704Z,100988.97
2022-08-09T13:33:24.450Z,100990.69
2022-08-09T13:36:37.917Z,100981.72
2022-08-09T13:38:55.759Z,100986.22
2022-08-09T13:41:59.535Z,100983.09
2022-08-09T13:44:17.695Z,100979.81
2022-08-09T13:47:27.536Z,100972.22
2022-08-09T13:49:39.695Z,100983.28
2022-08-09T13:52:25.262Z,100975.84
2022-08-09T13:54:59.298Z,100969.97
2022-08-09T13:57:36.629Z,100970.03
2022-08-09T14:00:12.736Z,100968.06
2022-08-09T14:03:04.498Z,100966.06
2022-08-09T14:05:57.322Z,100954.16
2022-08-09T14:08:19.337Z,100970.44
2022-08-09T14:10:51.983Z,100965.91
2022-08-09T14:13:28.439Z,100969.69
2022-08-09T14:16:15.442Z,100961.69
2022-08-09T14:18:50.436Z,100963.16
2022-08-09T14:21:22.488Z,100969.03
2022-08-09T14:23:54.525Z,100963.47
2022-08-09T14:26:30.250Z,100966.31
2022-08-09T14:29:07.756Z,100967.34
2022-08-09T14:31:54.943Z,100961.09
2022-08-09T14:34:31.004Z,100950.91
2022-08-09T14:37:01.835Z,100959.41
2022-08-09T14:39:45.277Z,100952.19
2022-08-09T14:42:40.578Z,100950.38
2022-08-09T14:46:39.777Z,100947.91
2022-08-09T14:48:03.619Z,100956.38
2022-08-09T14:50:34.187Z,100949.34
2022-08-09T14:53:06.324Z,100951.75
2022-08-09T14:55:42.425Z,100945.75
2022-08-09T14:58:16.829Z,100947.78
2022-08-09T15:00:51.116Z,100949.63
2022-08-09T15:03:21.053Z,100936.25
2022-08-09T15:05:52.544Z,100941.97
2022-08-09T15:08:32.575Z,100933.56
2022-08-09T15:11:06.966Z,100935.72
2022-08-09T15:13:55.910Z,100936.56
2022-08-09T15:16:29.675Z,100936.22
2022-08-09T15:18:59.841Z,100930.66
2022-08-09T15:21:56.703Z,100933.13
2022-08-09T15:24:27.108Z,100925.59
2022-08-09T15:26:59.448Z,100928.59
2022-08-09T15:30:56.077Z,100927.97
2022-08-09T15:32:28.953Z,100930.78
2022-08-09T15:35:00.610Z,100921.53
2022-08-09T15:38:11.021Z,100914.00
2022-08-09T15:40:32.135Z,100920.91
2022-08-09T15:43:01.926Z,100925.84
2022-08-09T15:45:30.798Z,100916.75
2022-08-09T15:48:29.308Z,100920.84
2022-08-09T15:50:58.763Z,100909.63
2022-08-09T15:54:05.188Z,100911.41
2022-08-09T15:56:29.159Z,100912.81
2022-08-09T15:58:59.566Z,100917.13
2022-08-09T16:01:35.558Z,100909.28
2022-08-09T16:04:05.785Z,100909.38
2022-08-09T16:06:44.808Z,100913.16
2022-08-09T16:09:18.626Z,100910.75
2022-08-09T16:12:01.677Z,100909.41
2022-08-09T16:14:31.693Z,100914.03
2022-08-09T16:17:00.900Z,100917.47
2022-08-09T16:19:30.409Z,100912.44
2022-08-09T16:22:05.866Z,100915.50
2022-08-09T16:24:43.181Z,100915.38
2022-08-09T16:27:11.222Z,100912.44
2022-08-09T16:29:49.967Z,100912.19
2022-08-09T16:32:34.302Z,100905.94
2022-08-09T16:35:11.377Z,100908.19
2022-08-09T16:37:55.257Z,100906.78
2022-08-09T16:40:40.325Z,100907.19
2022-08-09T16:43:10.168Z,100903.63
2022-08-09T16:45:44.267Z,100903.19
2022-08-09T16:48:49.536Z,100894.66
2022-08-09T16:51:07.565Z,100905.75
2022-08-09T16:53:56.209Z,100899.06
2022-08-09T16:56:25.282Z,100896.53
2022-08-09T16:58:53.553Z,100899.72
2022-08-09T17:01:24.758Z,100903.22
2022-08-09T17:03:53.588Z,100904.56
2022-08-09T17:06:29.071Z,100898.41
2022-08-09T17:09:17.590Z,100900.31
2022-08-09T17:11:55.679Z,100900.69
2022-08-09T17:14:27.017Z,100897.69
2022-08-09T17:16:59.783Z,100906.19
2022-08-09T17:19:46.606Z,100905.25
2022-08-09T17:22:25.024Z,100913.41
2022-08-09T17:25:10.026Z,100910.13
2022-08-09T17:27:48.768Z,100908.19
2022-08-09T17:30:19.837Z,100906.00
2022-08-09T17:32:48.630Z,100910.50
2022-08-09T17:35:16.924Z,100906.63
2022-08-09T17:38:11.704Z,100910.97
2022-08-09T17:40:36.186Z,100909.09
2022-08-09T17:43:32.763Z,100903.16
2022-08-09T17:46:05.842Z,100909.34
2022-08-09T17:48:39.493Z,100911.38
2022-08-09T17:51:18.325Z,100903.97
2022-08-09T17:53:52.130Z,100906.66
2022-08-09T17:56:27.110Z,100916.91
2022-08-09T17:58:59.987Z,100914.06
2022-08-09T18:01:57.806Z,100918.91
2022-08-09T18:04:17.733Z,100929.00
2022-08-09T18:06:54.141Z,100928.50
2022-08-09T18:09:40.593Z,100936.41
2022-08-09T18:12:17.637Z,100937.91
2022-08-09T18:14:54.705Z,100935.22
2022-08-09T18:17:27.391Z,100927.84
2022-08-09T18:20:54.792Z,100928.84
2022-08-09T18:23:05.609Z,100930.19
2022-08-09T18:25:50.754Z,100933.16
2022-08-09T18:30:42.419Z,100938.16
2022-08-09T18:31:12.549Z,100932.22
2022-08-09T18:33:40.722Z,100935.50
2022-08-09T18:36:25.384Z,100931.44
2022-08-09T18:39:00.324Z,100931.25
2022-08-09T18:41:34.093Z,100933.50
2022-08-09T18:44:12.410Z,100932.09
2022-08-09T18:46:51.018Z,100930.91
2022-08-09T18:49:32.240Z,100942.16
2022-08-09T18:52:10.132Z,100943.78
2022-08-09T18:54:49.791Z,100943.22
2022-08-09T18:57:23.934Z,100946.34
2022-08-09T19:00:08.762Z,100948.03
2022-08-09T19:02:38.189Z,100953.38
2022-08-09T19:05:20.490Z,100956.81
2022-08-09T19:07:59.196Z,100964.66
2022-08-09T19:10:39.168Z,100961.06
2022-08-09T19:13:21.974Z,100959.47
2022-08-09T19:15:59.846Z,100968.47
2022-08-09T19:18:35.777Z,100972.59
2022-08-09T19:21:09.153Z,100970.84
2022-08-09T19:24:37.052Z,100971.84
2022-08-09T19:26:32.142Z,100971.47
2022-08-09T19:29:03.485Z,100973.72
2022-08-09T19:31:45.732Z,100974.66
2022-08-09T19:34:21.955Z,100979.03
2022-08-09T19:36:51.950Z,100980.22
2022-08-09T19:39:20.666Z,100978.00
2022-08-09T19:41:58.272Z,100977.84
2022-08-09T19:44:27.856Z,100982.59
2022-08-09T19:46:56.077Z,100988.97
2022-08-09T19:50:07.976Z,100992.47
2022-08-09T19:52:12.133Z,100986.94
2022-08-09T19:54:41.063Z,100991.72
2022-08-09T19:57:10.081Z,100999.28
2022-08-09T19:59:59.392Z,100996.63
2022-08-09T20:04:10.092Z,100995.19
2022-08-09T20:05:23.682Z,101002.19
2022-08-09T20:08:00.284Z,100997.31
2022-08-09T20:10:34.622Z,100993.69
2022-08-09T20:13:08.419Z,101001.44
2022-08-09T20:16:33.521Z,101005.47
2022-08-09T20:18:27.550Z,101007.94
2022-08-09T20:20:56.265Z,101003.69
2022-08-09T20:23:25.524Z,101006.38
2022-08-09T20:26:13.207Z,101005.25
2022-08-09T20:28:48.635Z,101004.66
2022-08-09T20:31:19.642Z,101003.13
2022-08-09T20:33:52.535Z,101005.81
2022-08-09T20:36:27.389Z,101017.31
2022-08-09T20:39:28.547Z,101021.81
2022-08-09T20:41:44.295Z,101022.25
2022-08-09T20:44:16.917Z,101010.47
2022-08-09T20:46:56.179Z,101022.69
2022-08-09T20:49:28.636Z,101021.28
2022-08-09T20:51:57.012Z,101016.00
2022-08-09T20:54:28.879Z,101021.59
2022-08-09T20:56:58.438Z,101023.00
2022-08-09T21:00:20.962Z,101031.59
2022-08-09T21:02:20.476Z,101018.69
2022-08-09T21:05:56.585Z,101028.34
2022-08-09T21:07:38.739Z,101028.22
2022-08-09T21:10:15.432Z,101026.41
2022-08-09T21:15:34.827Z,101013.66
2022-08-09T21:18:23.188Z,101020.63
2022-08-09T21:20:54.079Z,101028.34
2022-08-09T21:23:26.546Z,101026.09
2022-08-09T21:26:11.508Z,101023.41
2022-08-09T21:28:51.886Z,101027.22
2022-08-09T21:31:24.741Z,101023.84
2022-08-09T21:34:21.098Z,101034.22
2022-08-09T21:36:57.324Z,101033.34
2022-08-09T21:39:28.261Z,101037.44
2022-08-09T21:42:13.160Z,101033.63
2022-08-09T21:44:42.783Z,101037.13
2022-08-09T21:47:20.673Z,101040.75
2022-08-09T21:49:50.928Z,101040.47
2022-08-09T21:52:21.508Z,101043.38
2022-08-09T21:54:59.439Z,101043.81
2022-08-09T21:57:39.560Z,101044.34
2022-08-09T22:00:31.728Z,101045.19
2022-08-09T22:03:04.654Z,101039.38
2022-08-09T22:05:36.941Z,101040.84
2022-08-09T22:08:13.761Z,101048.41
2022-08-09T22:11:48.842Z,101043.84
2022-08-09T22:13:42.228Z,101040.16
2022-08-09T22:16:12.197Z,101042.38
2022-08-09T22:18:53.351Z,101038.88
2022-08-09T22:21:45.037Z,101052.38
2022-08-09T22:24:20.864Z,101052.72
2022-08-09T22:26:53.340Z,101055.41
2022-08-09T22:29:28.443Z,101054.63
2022-08-09T22:32:29.472Z,101053.63
2022-08-09T22:35:02.479Z,101049.25
2022-08-09T22:37:40.202Z,101057.69
2022-08-09T22:40:10.932Z,101053.22
2022-08-09T22:42:50.552Z,101052.81
2022-08-09T22:48:11.137Z,101055.31
2022-08-09T22:48:29.704Z,101054.06
2022-08-09T22:51:10.887Z,101053.22
2022-08-09T22:54:02.494Z,101052.59
2022-08-09T22:56:33.778Z,101052.59
2022-08-09T22:59:06.088Z,101060.75
2022-08-09T23:01:54.259Z,101057.34
2022-08-09T23:04:25.545Z,101050.31
2022-08-09T23:07:14.008Z,101057.34
2022-08-09T23:09:50.280Z,101059.50
2022-08-09T23:12:19.826Z,101050.31
2022-08-09T23:14:48.892Z,101050.81
2022-08-09T23:17:24.656Z,101059.19
2022-08-09T23:20:06.903Z,101045.53
2022-08-09T23:22:36.951Z,101043.84
2022-08-09T23:25:07.860Z,101045.66
2022-08-09T23:27:36.416Z,101050.72
2022-08-09T23:30:27.025Z,101045.53
2022-08-09T23:32:55.151Z,101039.69
2022-08-09T23:35:28.096Z,101042.44
2022-08-09T23:37:56.056Z,101043.19
2022-08-09T23:40:25.569Z,101043.28
2022-08-09T23:42:53.474Z,101040.66
2022-08-09T23:45:36.504Z,101047.84
2022-08-09T23:48:08.972Z,101050.66
2022-08-09T23:50:37.571Z,101048.84
2022-08-09T23:53:05.628Z,101033.41
2022-08-09T23:55:36.094Z,101045.00
2022-08-09T23:58:08.549Z,101044.16
